createdAt,value
2023-01-17T00:01:29.378Z,4.40
2023-01-17T00:04:14.681Z,4.40
2023-01-17T00:06:59.961Z,4.40
2023-01-17T00:09:45.285Z,4.40
2023-01-17T00:12:12.002Z,4.30
2023-01-17T00:14:38.663Z,4.30
2023-01-17T00:17:05.451Z,4.30
2023-01-17T00:19:50.913Z,4.20
2023-01-17T00:22:47.551Z,4.20
2023-01-17T00:25:35.537Z,4.20
2023-01-17T00:28:02.444Z,4.20
2023-01-17T00:30:29.697Z,4.10
2023-01-17T00:32:56.251Z,4.10
2023-01-17T00:35:24.374Z,4.10
2023-01-17T00:38:10.127Z,4.10
2023-01-17T00:40:39.100Z,4.00
2023-01-17T00:43:24.708Z,4.00
2023-01-17T00:46:10.685Z,3.90
2023-01-17T00:48:57.072Z,3.90
2023-01-17T00:51:42.814Z,3.80
2023-01-17T00:54:28.817Z,3.80
2023-01-17T00:57:14.715Z,3.80
2023-01-17T01:00:00.222Z,3.80
2023-01-17T01:02:46.338Z,3.80
2023-01-17T01:05:32.504Z,3.80
2023-01-17T01:08:18.175Z,3.80
2023-01-17T01:11:04.759Z,3.80
2023-01-17T01:13:51.107Z,3.70
2023-01-17T01:16:37.785Z,3.70
2023-01-17T01:19:23.938Z,3.80
2023-01-17T01:22:09.288Z,3.70
2023-01-17T01:24:54.694Z,3.70
2023-01-17T01:27:40.125Z,3.70
2023-01-17T01:30:26.128Z,3.70
2023-01-17T01:33:11.624Z,3.70
2023-01-17T01:35:38.267Z,3.70
2023-01-17T01:38:04.993Z,3.70
2023-01-17T01:40:31.692Z,3.80
2023-01-17T01:43:00.220Z,3.70
2023-01-17T01:45:30.808Z,3.70
2023-01-17T01:48:06.794Z,3.80
2023-01-17T01:50:36.070Z,3.80
2023-01-17T01:53:06.038Z,3.80
2023-01-17T01:55:40.134Z,3.80
2023-01-17T01:58:16.246Z,3.80
2023-01-17T02:00:42.973Z,3.80
2023-01-17T02:03:15.397Z,3.80
2023-01-17T02:05:43.624Z,3.70
2023-01-17T02:08:16.625Z,3.80
2023-01-17T02:10:46.391Z,3.90
2023-01-17T02:13:16.261Z,3.90
2023-01-17T02:15:59.008Z,3.90
2023-01-17T02:18:25.615Z,3.80
2023-01-17T02:21:13.210Z,3.80
2023-01-17T02:23:49.092Z,3.70
2023-01-17T02:26:39.801Z,3.70
2023-01-17T02:29:43.991Z,3.60
2023-01-17T02:32:20.956Z,3.60
2023-01-17T02:35:07.060Z,3.50
2023-01-17T02:37:48.096Z,3.50
2023-01-17T02:40:23.196Z,3.50
2023-01-17T02:43:02.559Z,3.50
2023-01-17T02:45:29.387Z,3.50
2023-01-17T02:47:56.054Z,3.50
2023-01-17T02:50:27.278Z,3.50
2023-01-17T02:53:25.109Z,3.50
2023-01-17T02:56:06.075Z,3.50
2023-01-17T02:58:42.547Z,3.50
2023-01-17T03:01:16.395Z,3.40
2023-01-17T03:04:00.479Z,3.50
2023-01-17T03:06:39.598Z,3.40
2023-01-17T03:09:06.900Z,3.40
2023-01-17T03:11:33.829Z,3.50
2023-01-17T03:14:00.473Z,3.40
2023-01-17T03:16:30.394Z,3.30
2023-01-17T03:18:57.272Z,3.30
2023-01-17T03:21:24.399Z,3.30
2023-01-17T03:23:51.363Z,3.20
2023-01-17T03:26:18.146Z,3.20
2023-01-17T03:28:45.049Z,3.10
2023-01-17T03:31:15.351Z,3.10
2023-01-17T03:33:41.991Z,3.10
2023-01-17T03:36:09.023Z,3.00
2023-01-17T03:38:37.267Z,3.00
2023-01-17T03:41:04.520Z,3.00
2023-01-17T03:43:31.125Z,3.00
2023-01-17T03:46:06.330Z,3.00
2023-01-17T03:48:33.661Z,3.00
2023-01-17T03:51:00.298Z,3.00
2023-01-17T03:53:26.960Z,3.00
2023-01-17T03:55:53.618Z,3.00
2023-01-17T03:58:20.278Z,3.00
2023-01-17T04:00:46.936Z,3.00
2023-01-17T04:03:13.628Z,3.00
2023-01-17T04:05:40.248Z,3.00
2023-01-17T04:08:07.306Z,3.00
2023-01-17T04:10:34.097Z,3.00
2023-01-17T04:13:00.717Z,3.00
2023-01-17T04:15:27.373Z,2.90
2023-01-17T04:17:54.012Z,2.90
2023-01-17T04:20:38.097Z,2.80
2023-01-17T04:23:05.104Z,2.70
2023-01-17T04:25:32.056Z,2.70
2023-01-17T04:28:00.629Z,2.60
2023-01-17T04:30:28.274Z,2.70
2023-01-17T04:32:55.197Z,2.60
2023-01-17T04:35:22.435Z,2.60
2023-01-17T04:37:49.386Z,2.60
2023-01-17T04:40:16.261Z,2.60
2023-01-17T04:42:45.168Z,2.60
2023-01-17T04:45:12.701Z,2.70
2023-01-17T04:47:39.989Z,2.70
2023-01-17T04:50:07.956Z,2.70
2023-01-17T04:52:34.575Z,2.70
2023-01-17T04:55:01.529Z,2.70
2023-01-17T04:57:28.319Z,2.70
2023-01-17T04:59:54.914Z,2.60
2023-01-17T05:02:21.653Z,2.60
2023-01-17T05:04:48.282Z,2.50
2023-01-17T05:07:14.967Z,2.50
2023-01-17T05:09:41.712Z,2.50
2023-01-17T05:12:08.336Z,2.40
2023-01-17T05:14:34.993Z,2.40
2023-01-17T05:17:03.090Z,2.40
2023-01-17T05:19:29.764Z,2.50
2023-01-17T05:22:03.657Z,2.50
2023-01-17T05:24:31.357Z,2.50
2023-01-17T05:27:02.947Z,2.50
2023-01-17T05:29:30.377Z,2.50
2023-01-17T05:31:57.477Z,2.50
2023-01-17T05:34:24.196Z,2.60
2023-01-17T05:36:50.922Z,2.60
2023-01-17T05:39:17.551Z,2.60
2023-01-17T05:41:44.511Z,2.60
2023-01-17T05:44:11.354Z,2.70
2023-01-17T05:46:38.149Z,2.70
2023-01-17T05:49:05.310Z,2.70
2023-01-17T05:51:32.002Z,2.80
2023-01-17T05:53:58.654Z,2.80
2023-01-17T05:56:25.349Z,2.90
2023-01-17T05:58:51.999Z,2.90
2023-01-17T06:01:19.445Z,3.00
2023-01-17T06:03:46.098Z,3.10
2023-01-17T06:06:12.902Z,3.20
2023-01-17T06:08:39.609Z,3.30
2023-01-17T06:11:06.352Z,3.30
2023-01-17T06:13:33.031Z,3.40
2023-01-17T06:16:02.939Z,3.40
2023-01-17T06:18:31.090Z,3.30
2023-01-17T06:20:58.013Z,3.20
2023-01-17T06:23:25.056Z,3.20
2023-01-17T06:25:52.003Z,3.10
2023-01-17T06:28:23.348Z,3.10
2023-01-17T06:30:50.192Z,3.00
2023-01-17T06:33:16.920Z,2.90
2023-01-17T06:35:50.444Z,2.80
2023-01-17T06:38:17.303Z,2.70
2023-01-17T06:40:44.074Z,2.80
2023-01-17T06:43:10.787Z,2.80
2023-01-17T06:45:37.444Z,3.00
2023-01-17T06:48:05.180Z,3.10
2023-01-17T06:50:33.430Z,3.20
2023-01-17T06:53:02.592Z,3.40
2023-01-17T06:55:30.656Z,3.40
2023-01-17T06:57:59.439Z,3.40
2023-01-17T07:00:30.346Z,3.50
2023-01-17T07:02:57.325Z,3.50
2023-01-17T07:05:24.040Z,3.60
2023-01-17T07:07:50.718Z,3.60
2023-01-17T07:10:17.404Z,3.70
2023-01-17T07:12:44.126Z,3.70
2023-01-17T07:15:11.777Z,3.70
2023-01-17T07:17:38.784Z,3.80
2023-01-17T07:20:06.331Z,3.80
2023-01-17T07:22:33.011Z,3.90
2023-01-17T07:24:59.688Z,3.90
2023-01-17T07:27:30.159Z,3.90
2023-01-17T07:29:57.290Z,3.90
2023-01-17T07:32:25.891Z,4.10
2023-01-17T07:34:52.676Z,3.90
2023-01-17T07:37:19.997Z,3.90
2023-01-17T07:39:46.878Z,4.00
2023-01-17T07:42:13.489Z,3.80
2023-01-17T07:44:43.834Z,3.80
2023-01-17T07:47:11.233Z,3.80
2023-01-17T07:49:37.985Z,3.80
2023-01-17T07:52:07.376Z,3.80
2023-01-17T07:54:34.363Z,3.80
2023-01-17T07:57:01.699Z,3.80
2023-01-17T07:59:28.458Z,3.80
2023-01-17T08:01:55.238Z,3.80
2023-01-17T08:04:24.760Z,3.80
2023-01-17T08:06:51.661Z,3.90
2023-01-17T08:09:18.267Z,3.90
2023-01-17T08:11:44.880Z,3.90
2023-01-17T08:14:11.476Z,3.90
2023-01-17T08:16:39.980Z,3.90
2023-01-17T08:19:06.654Z,3.90
2023-01-17T08:21:33.276Z,3.90
2023-01-17T08:24:00.041Z,3.90
2023-01-17T08:26:27.456Z,3.80
2023-01-17T08:29:00.299Z,3.80
2023-01-17T08:31:36.650Z,3.80
2023-01-17T08:34:03.415Z,3.80
2023-01-17T08:36:31.125Z,3.80
2023-01-17T08:38:58.378Z,3.80
2023-01-17T08:41:27.734Z,3.80
2023-01-17T08:43:54.385Z,3.80
2023-01-17T08:46:21.159Z,3.80
2023-01-17T08:48:47.742Z,3.70
2023-01-17T08:51:14.378Z,3.70
2023-01-17T08:53:41.871Z,3.70
2023-01-17T08:56:09.566Z,3.70
2023-01-17T08:58:36.340Z,3.70
2023-01-17T09:01:05.024Z,3.60
2023-01-17T09:03:33.784Z,3.40
2023-01-17T09:06:12.639Z,3.30
2023-01-17T09:08:40.519Z,3.30
2023-01-17T09:11:09.539Z,3.30
2023-01-17T09:13:37.141Z,3.30
2023-01-17T09:16:04.464Z,3.40
2023-01-17T09:18:32.404Z,3.50
2023-01-17T09:20:59.373Z,3.30
2023-01-17T09:23:28.332Z,3.30
2023-01-17T09:25:57.025Z,3.30
2023-01-17T09:28:24.787Z,3.40
2023-01-17T09:30:51.522Z,3.50
2023-01-17T09:33:18.914Z,3.60
2023-01-17T09:35:46.503Z,3.70
2023-01-17T09:38:14.020Z,3.80
2023-01-17T09:40:47.311Z,3.90
2023-01-17T09:43:40.985Z,4.00
2023-01-17T09:46:22.390Z,4.20
2023-01-17T09:48:56.360Z,4.30
2023-01-17T09:51:26.899Z,4.40
2023-01-17T09:53:54.667Z,4.50
2023-01-17T09:56:29.579Z,4.50
2023-01-17T09:59:39.722Z,4.50
2023-01-17T10:02:14.159Z,4.50
2023-01-17T10:05:10.486Z,4.40
2023-01-17T10:08:04.453Z,4.40
2023-01-17T10:10:54.990Z,4.40
2023-01-17T10:13:33.055Z,4.50
2023-01-17T10:16:31.490Z,4.40
2023-01-17T10:19:09.680Z,4.30
2023-01-17T10:22:17.404Z,4.30
2023-01-17T10:25:05.238Z,4.30
2023-01-17T10:27:39.728Z,4.30
2023-01-17T10:30:42.432Z,4.20
2023-01-17T10:33:54.915Z,4.30
2023-01-17T10:36:26.867Z,4.30
2023-01-17T10:39:02.299Z,4.40
2023-01-17T10:41:38.253Z,4.50
2023-01-17T10:44:32.305Z,4.60
2023-01-17T10:47:14.526Z,4.80
2023-01-17T10:49:51.937Z,4.90
2023-01-17T10:52:21.482Z,5.10
2023-01-17T10:54:51.663Z,5.10
2023-01-17T10:57:27.236Z,5.20
2023-01-17T10:59:59.669Z,5.30
2023-01-17T11:02:35.855Z,5.30
2023-01-17T11:05:11.960Z,5.40
2023-01-17T11:07:40.180Z,5.40
2023-01-17T11:10:41.467Z,5.50
2023-01-17T11:13:22.571Z,5.50
2023-01-17T11:15:53.251Z,5.50
2023-01-17T11:18:21.911Z,5.50
2023-01-17T11:20:49.793Z,5.40
2023-01-17T11:23:18.068Z,5.40
2023-01-17T11:26:04.724Z,5.40
2023-01-17T11:28:39.945Z,5.40
2023-01-17T11:31:25.108Z,5.40
2023-01-17T11:34:07.314Z,5.40
2023-01-17T11:36:34.403Z,5.40
2023-01-17T11:39:17.912Z,5.40
2023-01-17T11:41:46.075Z,5.40
2023-01-17T11:44:27.930Z,5.40
2023-01-17T11:47:12.705Z,5.50
2023-01-17T11:49:44.672Z,5.50
2023-01-17T11:52:19.703Z,5.60
2023-01-17T11:54:48.158Z,5.60
2023-01-17T11:57:24.668Z,5.60
2023-01-17T12:00:14.162Z,5.60
2023-01-17T12:02:46.584Z,5.60
2023-01-17T12:05:29.607Z,5.60
2023-01-17T12:08:14.759Z,5.60
2023-01-17T12:11:00.818Z,5.60
2023-01-17T12:14:05.698Z,5.60
2023-01-17T12:17:11.456Z,5.60
2023-01-17T12:19:45.532Z,5.50
2023-01-17T12:22:44.759Z,5.60
2023-01-17T12:25:26.907Z,5.60
2023-01-17T12:28:03.643Z,5.60
2023-01-17T12:31:00.853Z,5.70
2023-01-17T12:33:43.609Z,5.70
2023-01-17T12:36:33.101Z,6.00
2023-01-17T12:39:05.776Z,5.80
2023-01-17T12:41:48.318Z,5.90
2023-01-17T12:44:17.336Z,5.90
2023-01-17T12:46:49.426Z,5.90
2023-01-17T12:49:34.219Z,5.90
2023-01-17T12:52:24.990Z,5.90
2023-01-17T12:55:01.817Z,5.80
2023-01-17T12:57:54.048Z,5.80
2023-01-17T13:00:25.316Z,5.80
2023-01-17T13:03:14.172Z,5.80
2023-01-17T13:05:46.227Z,5.80
2023-01-17T13:08:19.706Z,5.80
2023-01-17T13:10:55.904Z,5.80
2023-01-17T13:13:30.950Z,5.80
2023-01-17T13:16:14.556Z,5.80
2023-01-17T13:18:49.206Z,5.80
2023-01-17T13:21:29.448Z,5.80
2023-01-17T13:24:22.658Z,5.90
2023-01-17T13:27:02.216Z,5.90
2023-01-17T13:29:34.276Z,5.90
2023-01-17T13:32:36.334Z,5.80
2023-01-17T13:35:11.720Z,5.80
2023-01-17T13:37:52.225Z,5.80
2023-01-17T13:40:36.986Z,5.80
2023-01-17T13:43:12.065Z,5.80
2023-01-17T13:45:39.494Z,5.80
2023-01-17T13:48:21.162Z,5.80
2023-01-17T13:50:56.664Z,5.80
2023-01-17T13:53:35.395Z,5.80
2023-01-17T13:56:30.052Z,5.80
2023-01-17T13:59:01.992Z,5.90
2023-01-17T14:01:42.868Z,5.90
2023-01-17T14:04:11.228Z,5.90
2023-01-17T14:06:56.428Z,5.90
2023-01-17T14:09:43.897Z,5.80
2023-01-17T14:12:10.511Z,5.80
2023-01-17T14:14:40.057Z,5.80
2023-01-17T14:17:20.477Z,5.70
2023-01-17T14:19:50.009Z,5.70
2023-01-17T14:22:30.731Z,5.60
2023-01-17T14:24:57.387Z,5.60
2023-01-17T14:27:25.815Z,5.60
2023-01-17T14:29:58.905Z,5.60
2023-01-17T14:32:38.736Z,5.60
2023-01-17T14:35:06.106Z,5.50
2023-01-17T14:37:32.683Z,5.50
2023-01-17T14:40:00.668Z,5.40
2023-01-17T14:42:30.419Z,5.40
2023-01-17T14:45:09.723Z,5.40
2023-01-17T14:47:41.205Z,5.40
2023-01-17T14:50:25.295Z,5.40
2023-01-17T14:53:12.707Z,5.40
2023-01-17T14:55:48.905Z,5.40
2023-01-17T14:58:24.843Z,5.30
2023-01-17T15:00:56.420Z,5.30
2023-01-17T15:03:23.256Z,5.30
2023-01-17T15:05:52.935Z,5.30
2023-01-17T15:08:23.272Z,5.30
2023-01-17T15:10:58.503Z,5.30
2023-01-17T15:13:53.268Z,5.30
2023-01-17T15:16:34.096Z,5.30
2023-01-17T15:19:01.949Z,5.30
2023-01-17T15:21:32.870Z,5.30
2023-01-17T15:24:06.992Z,5.30
2023-01-17T15:26:36.259Z,5.30
2023-01-17T15:29:08.767Z,5.30
2023-01-17T15:31:48.611Z,5.30
2023-01-17T15:34:27.087Z,5.40
2023-01-17T15:36:58.096Z,5.30
2023-01-17T15:39:30.377Z,5.30
2023-01-17T15:41:59.827Z,5.30
2023-01-17T15:44:42.675Z,5.30
2023-01-17T15:47:28.139Z,5.30
2023-01-17T15:49:55.068Z,5.20
2023-01-17T15:52:21.741Z,5.20
2023-01-17T15:55:08.345Z,5.10
2023-01-17T15:57:37.008Z,5.10
2023-01-17T16:00:19.123Z,5.10
2023-01-17T16:02:51.888Z,5.10
2023-01-17T16:05:24.727Z,5.10
2023-01-17T16:07:53.766Z,5.10
2023-01-17T16:10:22.916Z,5.00
2023-01-17T16:12:52.660Z,5.00
2023-01-17T16:15:25.860Z,5.00
2023-01-17T16:17:56.193Z,5.00
2023-01-17T16:20:29.457Z,5.00
2023-01-17T16:22:56.253Z,5.00
2023-01-17T16:25:24.491Z,5.00
2023-01-17T16:27:52.418Z,5.00
2023-01-17T16:30:21.604Z,5.00
2023-01-17T16:32:49.416Z,5.00
2023-01-17T16:35:35.105Z,5.00
2023-01-17T16:38:15.365Z,5.00
2023-01-17T16:40:44.357Z,5.00
2023-01-17T16:43:12.476Z,5.00
2023-01-17T16:45:41.502Z,4.90
2023-01-17T16:48:08.799Z,4.90
2023-01-17T16:50:35.480Z,4.90
2023-01-17T16:53:02.158Z,4.90
2023-01-17T16:55:28.818Z,4.90
2023-01-17T16:57:58.103Z,4.90
2023-01-17T17:00:26.619Z,4.90
2023-01-17T17:02:54.016Z,4.90
2023-01-17T17:05:20.982Z,4.90
2023-01-17T17:07:50.758Z,4.80
2023-01-17T17:10:20.551Z,4.90
2023-01-17T17:12:47.651Z,4.80
2023-01-17T17:15:14.578Z,4.80
2023-01-17T17:17:43.138Z,4.80
2023-01-17T17:20:12.637Z,4.80
2023-01-17T17:22:44.022Z,4.80
2023-01-17T17:25:12.418Z,4.80
2023-01-17T17:27:39.494Z,4.70
2023-01-17T17:30:06.918Z,4.70
2023-01-17T17:32:33.787Z,4.70
2023-01-17T17:35:00.770Z,4.70
2023-01-17T17:37:30.735Z,4.70
2023-01-17T17:39:57.791Z,4.70
2023-01-17T17:42:25.635Z,4.70
2023-01-17T17:44:52.366Z,4.70
2023-01-17T17:47:19.360Z,4.70
2023-01-17T17:49:46.086Z,4.70
2023-01-17T17:52:12.850Z,4.70
2023-01-17T17:54:39.481Z,4.70
2023-01-17T17:57:06.580Z,4.70
2023-01-17T17:59:33.569Z,4.70
2023-01-17T18:02:00.282Z,4.70
2023-01-17T18:04:27.186Z,4.60
2023-01-17T18:06:59.855Z,4.70
2023-01-17T18:09:26.597Z,4.60
2023-01-17T18:11:53.507Z,4.60
2023-01-17T18:14:23.793Z,4.60
2023-01-17T18:16:50.830Z,4.60
2023-01-17T18:19:23.839Z,4.60
2023-01-17T18:21:51.361Z,4.60
2023-01-17T18:24:20.484Z,4.60
2023-01-17T18:26:50.263Z,4.50
2023-01-17T18:29:18.200Z,4.50
2023-01-17T18:31:46.342Z,4.50
2023-01-17T18:34:21.185Z,4.50
2023-01-17T18:36:48.064Z,4.50
2023-01-17T18:39:21.068Z,4.50
2023-01-17T18:41:51.166Z,4.50
2023-01-17T18:44:21.630Z,4.40
2023-01-17T18:46:50.096Z,4.40
2023-01-17T18:49:18.988Z,4.40
2023-01-17T18:51:46.563Z,4.40
2023-01-17T18:54:13.417Z,4.40
2023-01-17T18:56:40.153Z,4.30
2023-01-17T18:59:07.717Z,4.30
2023-01-17T19:01:36.353Z,4.30
2023-01-17T19:04:05.374Z,4.30
2023-01-17T19:06:37.666Z,4.30
2023-01-17T19:09:07.137Z,4.30
2023-01-17T19:11:34.745Z,4.30
2023-01-17T19:14:01.433Z,4.30
2023-01-17T19:16:30.793Z,4.30
2023-01-17T19:19:03.769Z,4.20
2023-01-17T19:21:30.820Z,4.20
2023-01-17T19:23:57.699Z,4.20
2023-01-17T19:26:27.088Z,4.30
2023-01-17T19:28:56.114Z,4.30
2023-01-17T19:31:25.046Z,4.30
2023-01-17T19:33:53.654Z,4.30
2023-01-17T19:36:23.491Z,4.30
2023-01-17T19:39:03.372Z,4.40
2023-01-17T19:41:31.437Z,4.40
2023-01-17T19:44:01.112Z,4.40
2023-01-17T19:46:28.506Z,4.40
2023-01-17T19:48:56.608Z,4.40
2023-01-17T19:51:24.934Z,4.40
2023-01-17T19:53:53.459Z,4.40
2023-01-17T19:56:25.788Z,4.40
2023-01-17T19:58:53.138Z,4.30
2023-01-17T20:01:26.539Z,4.60
2023-01-17T20:03:54.940Z,4.30
2023-01-17T20:06:25.303Z,4.30
2023-01-17T20:08:52.170Z,4.30
2023-01-17T20:11:21.805Z,4.30
2023-01-17T20:13:51.366Z,4.40
2023-01-17T20:16:19.147Z,4.40
2023-01-17T20:18:45.864Z,4.40
2023-01-17T20:21:17.060Z,4.40
2023-01-17T20:23:46.888Z,4.40
2023-01-17T20:26:15.998Z,4.40
2023-01-17T20:28:46.376Z,4.40
2023-01-17T20:31:21.240Z,4.40
2023-01-17T20:33:50.285Z,4.40
2023-01-17T20:36:18.257Z,4.40
2023-01-17T20:38:45.750Z,4.40
2023-01-17T20:41:19.495Z,4.50
2023-01-17T20:43:48.224Z,4.40
2023-01-17T20:46:15.580Z,4.40
2023-01-17T20:48:50.871Z,4.30
2023-01-17T20:51:18.587Z,4.20
2023-01-17T20:53:46.345Z,4.20
2023-01-17T20:56:15.300Z,4.10
2023-01-17T20:58:42.251Z,4.00
2023-01-17T21:01:10.885Z,4.00
2023-01-17T21:03:39.311Z,4.00
2023-01-17T21:06:11.239Z,4.00
2023-01-17T21:08:39.098Z,4.00
2023-01-17T21:11:07.120Z,4.10
2023-01-17T21:13:33.933Z,3.90
2023-01-17T21:16:01.677Z,3.80
2023-01-17T21:18:31.777Z,3.70
2023-01-17T21:21:08.832Z,3.60
2023-01-17T21:23:37.454Z,3.60
2023-01-17T21:26:10.798Z,3.40
2023-01-17T21:28:39.010Z,3.00
2023-01-17T21:31:23.414Z,2.90
2023-01-17T21:34:11.102Z,2.90
2023-01-17T21:36:40.044Z,2.90
2023-01-17T21:39:10.998Z,3.00
2023-01-17T21:41:40.297Z,3.10
2023-01-17T21:44:23.542Z,3.00
2023-01-17T21:46:56.116Z,3.00
2023-01-17T21:49:23.718Z,3.20
2023-01-17T21:51:53.174Z,3.30
2023-01-17T21:54:44.230Z,3.40
2023-01-17T21:57:31.080Z,3.50
2023-01-17T21:59:57.962Z,3.60
2023-01-17T22:02:24.695Z,3.50
2023-01-17T22:04:51.452Z,3.30
2023-01-17T22:07:18.152Z,3.10
2023-01-17T22:09:44.817Z,2.90
2023-01-17T22:12:11.591Z,2.90
2023-01-17T22:14:38.805Z,2.90
2023-01-17T22:17:05.625Z,3.00
2023-01-17T22:19:33.628Z,3.10
2023-01-17T22:22:00.453Z,3.20
2023-01-17T22:24:27.104Z,3.30
2023-01-17T22:26:53.742Z,3.30
2023-01-17T22:29:21.545Z,3.40
2023-01-17T22:31:48.950Z,3.50
2023-01-17T22:34:15.670Z,3.50
2023-01-17T22:36:42.537Z,3.40
2023-01-17T22:39:10.207Z,3.50
2023-01-17T22:41:38.461Z,3.50
2023-01-17T22:44:05.557Z,3.50
2023-01-17T22:46:35.705Z,3.40
2023-01-17T22:49:02.781Z,3.30
2023-01-17T22:51:29.636Z,3.20
2023-01-17T22:53:58.923Z,3.10
2023-01-17T22:56:31.101Z,3.10
2023-01-17T22:59:00.552Z,3.20
2023-01-17T23:01:30.087Z,3.30
2023-01-17T23:03:59.698Z,3.30
2023-01-17T23:06:38.017Z,3.40
2023-01-17T23:09:08.630Z,3.40
2023-01-17T23:11:44.248Z,3.40
2023-01-17T23:14:21.930Z,3.30
2023-01-17T23:17:14.234Z,3.30
2023-01-17T23:19:47.192Z,3.40
2023-01-17T23:22:20.983Z,3.40
2023-01-17T23:24:57.981Z,3.40
2023-01-17T23:27:56.413Z,3.50
2023-01-17T23:30:29.055Z,3.50
2023-01-17T23:32:58.318Z,3.50
2023-01-17T23:35:27.493Z,3.60
2023-01-17T23:38:13.166Z,3.60
2023-01-17T23:40:40.738Z,3.60
2023-01-17T23:43:25.291Z,3.70
2023-01-17T23:45:53.671Z,3.70
2023-01-17T23:48:23.522Z,3.70
2023-01-17T23:50:50.372Z,3.80
2023-01-17T23:53:23.154Z,3.80
2023-01-17T23:55:51.796Z,3.80
2023-01-17T23:58:20.460Z,3.80
